createdAt,value
2019-05-11T00:02:44.101Z,68.77
2019-05-11T00:07:44.144Z,68.5
2019-05-11T00:12:44.466Z,67.86
2019-05-11T00:17:44.323Z,68.04
2019-05-11T00:22:44.564Z,67.6
2019-05-11T00:27:44.569Z,67.5
2019-05-11T00:32:44.623Z,67.44
2019-05-11T00:37:50.943Z,68.65
2019-05-11T00:42:51.342Z,68.88
2019-05-11T00:47:51.090Z,68.15
2019-05-11T00:52:51.250Z,67.81
2019-05-11T00:57:51.924Z,66.61
2019-05-11T01:02:52.129Z,66.82
2019-05-11T01:07:52.041Z,67.9
2019-05-11T01:12:52.096Z,68.35
2019-05-11T01:17:52.162Z,67.81
2019-05-11T01:22:52.212Z,67.62
2019-05-11T01:27:52.387Z,68.08
2019-05-11T01:32:58.615Z,68.83
2019-05-11T01:37:58.738Z,69.57
2019-05-11T01:42:59.782Z,69.21
2019-05-11T01:47:59.828Z,69.72
2019-05-11T01:52:59.868Z,68.87
2019-05-11T01:57:59.994Z,68.61
2019-05-11T02:02:59.983Z,69.6
2019-05-11T02:08:00.106Z,69.78
2019-05-11T02:13:00.144Z,70.54
2019-05-11T02:18:00.191Z,70.65
2019-05-11T02:23:00.206Z,70.85
2019-05-11T02:28:06.601Z,70.63
2019-05-11T02:33:06.787Z,70.19
2019-05-11T02:38:06.719Z,70.23
2019-05-11T02:43:06.737Z,70.45
2019-05-11T02:48:07.651Z,70.29
2019-05-11T02:53:07.680Z,70.01
2019-05-11T02:58:07.726Z,70.8
2019-05-11T03:03:07.758Z,69.54
2019-05-11T03:08:07.874Z,69.91
2019-05-11T03:13:07.910Z,69.93
2019-05-11T03:18:08.030Z,70.12
2019-05-11T03:23:14.370Z,70.09
2019-05-11T03:28:14.344Z,69.65
2019-05-11T03:33:14.384Z,69.74
2019-05-11T03:38:14.411Z,69.55
2019-05-11T03:43:14.545Z,69.7
2019-05-11T03:48:14.574Z,69.66
2019-05-11T03:53:14.695Z,69.09
2019-05-11T03:58:14.822Z,69.74
2019-05-11T04:03:14.938Z,69.1
2019-05-11T04:08:14.949Z,69.38
2019-05-11T04:13:14.985Z,69.19
2019-05-11T04:18:21.304Z,69.38
2019-05-11T04:23:21.344Z,69.04
2019-05-11T04:28:21.627Z,69.62
2019-05-11T04:33:21.503Z,69.0
2019-05-11T04:38:21.715Z,69.5
2019-05-11T04:43:21.715Z,68.75
2019-05-11T04:48:23.194Z,68.49
2019-05-11T04:53:23.231Z,69.03
2019-05-11T04:58:23.359Z,68.71
2019-05-11T05:03:41.025Z,68.4
2019-05-11T05:08:28.015Z,68.17
2019-05-11T05:13:31.861Z,68.45
2019-05-11T05:18:31.895Z,67.61
2019-05-11T05:23:32.040Z,68.02
2019-05-11T05:28:31.997Z,67.73
2019-05-11T05:33:32.037Z,67.59
2019-05-11T05:38:32.071Z,67.33
2019-05-11T05:43:32.246Z,67.28
2019-05-11T05:48:32.246Z,67.53
2019-05-11T05:53:32.359Z,68.35
2019-05-11T05:58:32.596Z,68.0
2019-05-11T06:03:32.474Z,68.13
2019-05-11T06:08:36.802Z,68.18
2019-05-11T06:13:45.957Z,67.86
2019-05-11T06:18:36.911Z,67.99
2019-05-11T06:23:37.117Z,68.58
2019-05-11T06:28:37.297Z,69.59
2019-05-11T06:33:37.235Z,70.07
2019-05-11T06:38:37.272Z,69.4
2019-05-11T06:43:37.386Z,69.27
2019-05-11T06:48:37.428Z,68.91
2019-05-11T06:53:37.705Z,68.24
2019-05-11T06:58:37.546Z,67.87
2019-05-11T07:03:44.114Z,67.98
2019-05-11T07:08:43.891Z,68.35
2019-05-11T07:13:44.007Z,68.48
2019-05-11T07:18:44.142Z,69.81
2019-05-11T07:23:44.704Z,71.9
2019-05-11T07:28:44.886Z,71.65
2019-05-11T07:33:44.910Z,73.02
2019-05-11T07:38:44.946Z,72.71
2019-05-11T07:43:44.984Z,70.59
2019-05-11T07:48:45.166Z,71.14
2019-05-11T07:53:45.172Z,72.13
2019-05-11T07:58:52.569Z,67.88
2019-05-11T08:03:52.898Z,68.49
2019-05-11T08:08:52.934Z,66.94
2019-05-11T08:13:53.049Z,64.25
2019-05-11T08:18:53.078Z,63.47
2019-05-11T08:23:53.259Z,62.76
2019-05-11T08:28:53.207Z,63.39
2019-05-11T08:33:53.324Z,62.25
2019-05-11T08:38:53.507Z,61.01
2019-05-11T08:43:53.414Z,58.33
2019-05-11T08:48:53.587Z,58.63
2019-05-11T08:54:00.005Z,58.83
2019-05-11T08:59:00.066Z,60.92
2019-05-11T09:04:00.160Z,58.63
2019-05-11T09:09:00.199Z,58.0
2019-05-11T09:14:00.238Z,61.37
2019-05-11T09:19:00.352Z,59.26
2019-05-11T09:24:00.478Z,56.11
2019-05-11T09:29:00.474Z,55.68
2019-05-11T09:34:00.725Z,49.88
2019-05-11T09:39:01.039Z,47.92
2019-05-11T09:44:01.263Z,49.41
2019-05-11T09:49:08.429Z,46.19
2019-05-11T09:54:08.326Z,45.16
2019-05-11T09:59:09.215Z,46.07
2019-05-11T10:04:09.407Z,44.06
2019-05-11T10:15:03.172Z,42.24
2019-05-11T10:20:03.204Z,42.87
2019-05-11T10:25:03.544Z,41.42
2019-05-11T10:30:03.350Z,41.57
2019-05-11T10:35:03.384Z,41.42
2019-05-11T10:40:03.523Z,42.85
2019-05-11T10:45:10.187Z,44.26
2019-05-11T10:50:10.560Z,42.5
2019-05-11T10:55:11.453Z,42.8
2019-05-11T11:00:11.817Z,42.17
2019-05-11T11:06:04.005Z,40.0
2019-05-11T11:11:04.276Z,41.98
2019-05-11T11:16:04.458Z,40.86
2019-05-11T11:21:05.038Z,41.3
2019-05-11T11:26:07.530Z,40.37
2019-05-11T11:31:08.002Z,42.65
2019-05-11T11:36:05.584Z,41.0
2019-05-11T11:41:11.920Z,40.34
2019-05-11T11:46:12.832Z,42.72
2019-05-11T11:51:12.825Z,42.48
2019-05-11T11:56:13.082Z,42.89
2019-05-11T12:01:13.077Z,39.53
2019-05-11T12:06:13.117Z,41.33
2019-05-11T12:11:13.152Z,40.94
2019-05-11T12:16:13.265Z,41.59
2019-05-11T12:21:13.300Z,42.71
2019-05-11T12:26:13.336Z,40.97
2019-05-11T12:31:13.434Z,40.22
2019-05-11T12:36:19.765Z,37.61
2019-05-11T12:41:19.905Z,38.86
2019-05-11T12:46:19.938Z,37.63
2019-05-11T12:51:20.017Z,39.25
2019-05-11T12:56:20.243Z,37.99
2019-05-11T13:01:20.241Z,36.58
2019-05-11T13:06:20.288Z,37.33
2019-05-11T13:11:20.257Z,37.51
2019-05-11T13:16:20.463Z,38.48
2019-05-11T13:21:20.498Z,43.74
2019-05-11T13:26:20.532Z,49.01
2019-05-11T13:31:28.165Z,49.72
2019-05-11T13:36:29.036Z,52.62
2019-05-11T13:41:28.427Z,51.44
2019-05-11T13:46:28.667Z,50.88
2019-05-11T13:51:28.907Z,49.67
2019-05-11T13:56:32.078Z,50.05
2019-05-11T14:01:28.165Z,46.06
2019-05-11T14:06:29.174Z,42.58
2019-05-11T14:11:28.927Z,42.83
2019-05-11T14:16:28.234Z,43.2
2019-05-11T14:21:30.639Z,54.66
2019-05-11T14:26:38.983Z,58.81
2019-05-11T14:31:38.975Z,61.68
2019-05-11T14:36:39.080Z,62.38
2019-05-11T14:41:38.640Z,61.66
2019-05-11T14:46:38.752Z,63.13
2019-05-11T14:51:39.497Z,63.85
2019-05-11T14:56:38.526Z,65.31
2019-05-11T15:01:38.660Z,65.33
2019-05-11T15:06:39.015Z,64.21
2019-05-11T15:11:39.206Z,64.14
2019-05-11T15:16:38.773Z,65.76
2019-05-11T15:21:44.553Z,65.84
2019-05-11T15:26:44.586Z,65.12
2019-05-11T15:31:44.696Z,65.12
2019-05-11T15:36:44.723Z,64.82
2019-05-11T15:41:44.760Z,65.35
2019-05-11T15:46:44.902Z,63.62
2019-05-11T15:51:45.042Z,65.47
2019-05-11T15:56:45.042Z,64.88
2019-05-11T16:01:45.078Z,65.19
2019-05-11T16:06:45.210Z,64.43
2019-05-11T16:11:45.246Z,66.92
2019-05-11T16:16:52.503Z,66.62
2019-05-11T16:21:53.671Z,68.85
2019-05-11T16:26:58.451Z,67.46
2019-05-11T16:31:58.204Z,69.43
2019-05-11T16:36:56.523Z,68.98
2019-05-11T16:41:58.212Z,68.13
2019-05-11T16:46:58.966Z,68.07
2019-05-11T16:51:56.716Z,69.29
2019-05-11T16:56:58.263Z,70.15
2019-05-11T17:01:58.899Z,71.01
2019-05-11T17:06:58.162Z,70.93
2019-05-11T17:12:05.265Z,71.34
2019-05-11T17:17:05.300Z,71.95
2019-05-11T17:22:05.416Z,72.33
2019-05-11T17:27:05.445Z,72.51
2019-05-11T17:32:05.574Z,72.65
2019-05-11T17:37:05.612Z,72.02
2019-05-11T17:42:05.783Z,72.46
2019-05-11T17:47:05.771Z,73.94
2019-05-11T17:52:07.643Z,73.69
2019-05-11T17:57:06.032Z,73.58
2019-05-11T18:02:06.038Z,72.61
2019-05-11T18:07:28.330Z,72.9
2019-05-11T18:12:14.574Z,72.53
2019-05-11T18:17:14.610Z,72.19
2019-05-11T18:22:14.793Z,73.33
2019-05-11T18:27:14.821Z,72.09
2019-05-11T18:32:14.982Z,72.06
2019-05-11T18:37:14.991Z,72.78
2019-05-11T18:42:15.175Z,73.12
2019-05-11T18:47:15.178Z,72.59
2019-05-11T18:52:15.358Z,73.17
2019-05-11T18:57:15.338Z,73.45
2019-05-11T19:02:21.706Z,73.55
2019-05-11T19:07:21.782Z,73.97
2019-05-11T19:12:21.819Z,74.15
2019-05-11T19:17:21.922Z,74.17
2019-05-11T19:22:22.041Z,74.37
2019-05-11T19:27:22.035Z,74.44
2019-05-11T19:32:23.822Z,75.32
2019-05-11T19:37:24.042Z,74.7
2019-05-11T19:42:23.914Z,74.06
2019-05-11T19:47:23.956Z,75.58
2019-05-11T19:52:24.098Z,74.51
2019-05-11T19:57:30.537Z,74.71
2019-05-11T20:02:30.630Z,74.76
2019-05-11T20:07:32.490Z,74.56
2019-05-11T20:12:30.976Z,74.7
2019-05-11T20:17:32.249Z,75.15
2019-05-11T20:22:32.202Z,74.03
2019-05-11T20:27:32.180Z,74.22
2019-05-11T20:32:32.433Z,75.11
2019-05-11T20:37:32.473Z,74.16
2019-05-11T20:42:32.719Z,74.12
2019-05-11T20:47:32.856Z,74.37
2019-05-11T20:52:39.465Z,75.12
2019-05-11T20:57:39.946Z,73.63
2019-05-11T21:02:39.426Z,73.56
2019-05-11T21:07:39.461Z,74.11
2019-05-11T21:12:39.491Z,73.4
2019-05-11T21:17:39.746Z,73.5
2019-05-11T21:22:41.090Z,73.72
2019-05-11T21:27:39.861Z,73.82
2019-05-11T21:32:39.951Z,72.61
2019-05-11T21:37:39.991Z,73.26
2019-05-11T21:42:40.433Z,73.37
2019-05-11T21:47:52.715Z,74.07
2019-05-11T21:52:54.525Z,72.1
2019-05-11T21:57:52.839Z,73.31
2019-05-11T22:02:53.259Z,73.69
2019-05-11T22:07:53.007Z,73.07
2019-05-11T22:12:53.119Z,73.44
2019-05-11T22:17:54.227Z,73.46
2019-05-11T22:22:54.248Z,73.77
2019-05-11T22:27:54.292Z,73.21
2019-05-11T22:32:54.323Z,72.88
2019-05-11T22:37:54.506Z,73.57
2019-05-11T22:43:02.786Z,73.23
2019-05-11T22:48:02.827Z,72.9
2019-05-11T22:53:02.945Z,73.05
2019-05-11T22:58:02.979Z,72.44
2019-05-11T23:03:03.015Z,73.06
2019-05-11T23:08:03.133Z,73.1
2019-05-11T23:13:03.168Z,72.45
2019-05-11T23:18:03.315Z,72.94
2019-05-11T23:23:03.352Z,72.72
2019-05-11T23:28:03.467Z,73.29
2019-05-11T23:33:03.539Z,72.42
2019-05-11T23:38:10.192Z,72.6
2019-05-11T23:43:09.925Z,71.3
2019-05-11T23:48:10.203Z,71.43
2019-05-11T23:53:10.801Z,71.51
2019-05-11T23:58:10.565Z,71.84
